N1GM SEGU-KEYW
Flight info
| Callsign | N1GM |
|---|---|
| Flight time | N/A |
| Altitude | 45000 |
| Route | DALUD3 DALUD DCT UGUPI UL780 TBG UL465 GCM UG448 IKBIX DCT VANED |
| Aircraft | C750/M-SBDE3FGHRWXY/S |
Departure
| Time | N/A |
|---|---|
| Airport | José Joaquín de Olmedo International Airport (SEGU) |
Arrival
| Time | 2026-05-03 23:03 |
|---|---|
| Airport | Key West International Airport (KEYW) |
| Time | Latitude | Longitude | Altitude | Speed | Heading |
|---|---|---|---|---|---|
| 2026-05-03 20:15 | 3.31685 | -79.74877 | 44997 ft | 534 kts | 2° |
| 2026-05-03 20:15 | 3.37877 | -79.74602 | 45001 ft | 534 kts | 2° |
| 2026-05-03 20:16 | 3.45293 | -79.74278 | 45000 ft | 534 kts | 2° |
| 2026-05-03 20:16 | 3.52763 | -79.73951 | 44997 ft | 534 kts | 2° |
| 2026-05-03 20:17 | 3.60154 | -79.73631 | 45003 ft | 534 kts | 2° |
| 2026-05-03 20:17 | 3.67595 | -79.73318 | 44995 ft | 534 kts | 2° |
| 2026-05-03 20:18 | 3.74987 | -79.73008 | 45002 ft | 534 kts | 3° |
| 2026-05-03 20:18 | 3.82433 | -79.72656 | 44996 ft | 534 kts | 3° |
| 2026-05-03 20:19 | 3.89835 | -79.72337 | 44998 ft | 534 kts | 2° |
| 2026-05-03 20:19 | 3.97270 | -79.71999 | 45000 ft | 534 kts | 2° |
| 2026-05-03 20:20 | 4.04710 | -79.71651 | 44992 ft | 534 kts | 3° |
| 2026-05-03 20:20 | 4.12086 | -79.71330 | 44993 ft | 533 kts | 2° |
| 2026-05-03 20:21 | 4.19508 | -79.70986 | 44980 ft | 532 kts | 3° |
| 2026-05-03 20:21 | 4.26913 | -79.70645 | 44969 ft | 532 kts | 3° |
| 2026-05-03 20:22 | 4.34262 | -79.70332 | 44961 ft | 531 kts | 3° |
| 2026-05-03 20:22 | 4.41633 | -79.69978 | 44961 ft | 530 kts | 3° |
| 2026-05-03 20:23 | 4.49014 | -79.69666 | 44963 ft | 530 kts | 3° |
| 2026-05-03 20:23 | 4.56381 | -79.69329 | 44957 ft | 529 kts | 3° |
| 2026-05-03 20:24 | 4.63751 | -79.68995 | 44963 ft | 529 kts | 3° |
| 2026-05-03 20:24 | 4.71074 | -79.68665 | 44968 ft | 531 kts | 3° |
| 2026-05-03 20:25 | 4.78480 | -79.68356 | 44972 ft | 534 kts | 3° |
| 2026-05-03 20:25 | 4.85927 | -79.68011 | 44976 ft | 536 kts | 2° |
| 2026-05-03 20:26 | 4.93376 | -79.67684 | 44981 ft | 539 kts | 2° |
| 2026-05-03 20:26 | 5.00914 | -79.67362 | 44986 ft | 543 kts | 1° |
| 2026-05-03 20:27 | 5.08437 | -79.67035 | 44973 ft | 545 kts | 2° |
| 2026-05-03 20:27 | 5.16067 | -79.66687 | 44984 ft | 548 kts | 0° |
| 2026-05-03 20:28 | 5.23625 | -79.66399 | 44988 ft | 545 kts | 359° |
| 2026-05-03 20:28 | 5.31184 | -79.66192 | 44993 ft | 543 kts | 359° |
| 2026-05-03 20:29 | 5.38725 | -79.66017 | 44996 ft | 539 kts | 359° |
| 2026-05-03 20:29 | 5.46197 | -79.65803 | 44996 ft | 538 kts | 359° |
| 2026-05-03 20:30 | 5.53697 | -79.65574 | 44996 ft | 537 kts | 359° |
| 2026-05-03 20:30 | 5.61132 | -79.65352 | 44996 ft | 536 kts | 359° |
| 2026-05-03 20:31 | 5.68604 | -79.65144 | 44996 ft | 536 kts | 359° |
| 2026-05-03 20:31 | 5.76036 | -79.64932 | 44996 ft | 536 kts | 359° |
| 2026-05-03 20:32 | 5.83515 | -79.64722 | 44996 ft | 536 kts | 359° |
| 2026-05-03 20:32 | 5.90972 | -79.64504 | 44996 ft | 536 kts | 359° |
| 2026-05-03 20:33 | 5.98392 | -79.64297 | 44996 ft | 536 kts | 359° |
| 2026-05-03 20:33 | 6.05870 | -79.64082 | 44996 ft | 536 kts | 359° |
| 2026-05-03 20:34 | 6.13307 | -79.63871 | 44996 ft | 536 kts | 359° |
| 2026-05-03 20:34 | 6.20780 | -79.63664 | 44996 ft | 536 kts | 359° |
| 2026-05-03 20:35 | 6.28220 | -79.63453 | 44996 ft | 536 kts | 359° |
| 2026-05-03 20:35 | 6.35688 | -79.63239 | 44996 ft | 536 kts | 359° |
| 2026-05-03 20:36 | 6.43129 | -79.63028 | 44996 ft | 536 kts | 359° |
| 2026-05-03 20:36 | 6.50604 | -79.62817 | 44996 ft | 536 kts | 359° |
| 2026-05-03 20:37 | 6.58030 | -79.62610 | 44996 ft | 536 kts | 359° |
| 2026-05-03 20:37 | 6.65475 | -79.62404 | 44996 ft | 536 kts | 359° |
| 2026-05-03 20:38 | 6.72949 | -79.62199 | 44996 ft | 536 kts | 359° |
| 2026-05-03 20:38 | 6.80394 | -79.61997 | 44996 ft | 536 kts | 359° |
| 2026-05-03 20:39 | 6.87873 | -79.61796 | 44996 ft | 536 kts | 359° |
| 2026-05-03 20:39 | 6.95288 | -79.61599 | 44996 ft | 536 kts | 359° |
| 2026-05-03 20:40 | 7.02777 | -79.61401 | 44996 ft | 536 kts | 359° |
| 2026-05-03 20:40 | 7.10209 | -79.61208 | 44996 ft | 536 kts | 359° |
| 2026-05-03 20:41 | 7.17675 | -79.61002 | 44996 ft | 536 kts | 359° |
| 2026-05-03 20:41 | 7.25115 | -79.60777 | 44996 ft | 536 kts | 359° |
| 2026-05-03 20:42 | 7.32565 | -79.60564 | 44996 ft | 536 kts | 359° |
| 2026-05-03 20:42 | 7.40038 | -79.60334 | 44996 ft | 537 kts | 359° |
| 2026-05-03 20:43 | 7.47524 | -79.60122 | 44996 ft | 537 kts | 359° |
| 2026-05-03 20:43 | 7.54966 | -79.59892 | 44996 ft | 537 kts | 359° |
| 2026-05-03 20:44 | 7.62405 | -79.59673 | 44996 ft | 537 kts | 359° |
| 2026-05-03 20:44 | 7.69895 | -79.59452 | 44996 ft | 537 kts | 359° |
| 2026-05-03 20:45 | 7.77334 | -79.59227 | 44996 ft | 537 kts | 359° |
| 2026-05-03 20:45 | 7.84813 | -79.59004 | 44996 ft | 537 kts | 359° |
| 2026-05-03 20:46 | 7.92248 | -79.58786 | 44996 ft | 537 kts | 359° |
| 2026-05-03 20:46 | 7.99731 | -79.58558 | 44996 ft | 537 kts | 359° |
| 2026-05-03 20:47 | 8.07175 | -79.58336 | 44996 ft | 537 kts | 359° |
| 2026-05-03 20:47 | 8.14626 | -79.58116 | 44996 ft | 537 kts | 359° |
| 2026-05-03 20:48 | 8.22070 | -79.57896 | 44996 ft | 537 kts | 359° |
| 2026-05-03 20:48 | 8.29561 | -79.57666 | 44996 ft | 537 kts | 359° |
| 2026-05-03 20:49 | 8.37005 | -79.57444 | 44996 ft | 537 kts | 359° |
| 2026-05-03 20:49 | 8.44494 | -79.57222 | 44996 ft | 537 kts | 359° |
| 2026-05-03 20:50 | 8.51935 | -79.57003 | 44996 ft | 537 kts | 359° |
| 2026-05-03 20:50 | 8.59383 | -79.56775 | 44996 ft | 537 kts | 359° |
| 2026-05-03 20:51 | 8.66874 | -79.56549 | 44996 ft | 537 kts | 359° |
| 2026-05-03 20:51 | 8.74319 | -79.56327 | 44996 ft | 537 kts | 359° |
| 2026-05-03 20:52 | 8.81787 | -79.56406 | 44999 ft | 534 kts | 353° |
| 2026-05-03 20:52 | 8.89100 | -79.57412 | 45002 ft | 532 kts | 347° |
| 2026-05-03 20:53 | 8.95810 | -79.58804 | 44999 ft | 531 kts | 345° |
| 2026-05-03 20:53 | 9.03072 | -79.60334 | 44996 ft | 532 kts | 346° |
| 2026-05-03 20:54 | 9.10333 | -79.61676 | 44996 ft | 532 kts | 348° |
| 2026-05-03 20:54 | 9.21277 | -79.63498 | 44996 ft | 533 kts | 348° |
| 2026-05-03 20:55 | 9.28622 | -79.64683 | 44996 ft | 533 kts | 348° |
| 2026-05-03 20:55 | 9.35902 | -79.65910 | 44996 ft | 532 kts | 348° |
| 2026-05-03 20:56 | 9.43217 | -79.67187 | 44996 ft | 532 kts | 348° |
| 2026-05-03 20:56 | 9.50510 | -79.68420 | 44996 ft | 533 kts | 348° |
| 2026-05-03 20:57 | 9.57830 | -79.69672 | 44996 ft | 532 kts | 348° |
| 2026-05-03 20:57 | 9.65101 | -79.70911 | 44996 ft | 533 kts | 348° |
| 2026-05-03 20:58 | 9.72390 | -79.72162 | 44996 ft | 532 kts | 348° |
| 2026-05-03 20:58 | 9.79715 | -79.73405 | 44996 ft | 533 kts | 348° |
| 2026-05-03 20:59 | 9.86999 | -79.74654 | 44996 ft | 533 kts | 348° |
| 2026-05-03 20:59 | 9.94327 | -79.75911 | 44996 ft | 533 kts | 348° |
| 2026-05-03 21:00 | 9.99203 | -79.76737 | 44996 ft | 533 kts | 348° |
| 2026-05-03 21:00 | 10.08932 | -79.78403 | 44996 ft | 533 kts | 348° |
| 2026-05-03 21:01 | 10.16212 | -79.79656 | 44996 ft | 533 kts | 348° |
| 2026-05-03 21:01 | 10.23541 | -79.80909 | 44996 ft | 533 kts | 348° |
| 2026-05-03 21:02 | 10.30832 | -79.82152 | 44996 ft | 533 kts | 348° |
| 2026-05-03 21:02 | 10.38113 | -79.83408 | 44996 ft | 533 kts | 348° |
| 2026-05-03 21:03 | 10.45448 | -79.84627 | 44996 ft | 533 kts | 348° |
| 2026-05-03 21:03 | 10.52755 | -79.85821 | 44996 ft | 533 kts | 348° |
| 2026-05-03 21:04 | 10.60086 | -79.87046 | 44996 ft | 533 kts | 348° |
| 2026-05-03 21:04 | 10.67375 | -79.88249 | 44996 ft | 533 kts | 348° |
| 2026-05-03 21:05 | 10.74724 | -79.89477 | 44996 ft | 533 kts | 348° |
| 2026-05-03 21:05 | 10.82029 | -79.90686 | 44996 ft | 533 kts | 348° |
| 2026-05-03 21:06 | 10.89311 | -79.91906 | 44996 ft | 533 kts | 348° |
| 2026-05-03 21:06 | 10.96634 | -79.93118 | 44996 ft | 533 kts | 348° |
| 2026-05-03 21:07 | 11.03940 | -79.94341 | 44996 ft | 533 kts | 348° |
| 2026-05-03 21:07 | 11.11290 | -79.95561 | 44996 ft | 533 kts | 348° |
| 2026-05-03 21:08 | 11.18572 | -79.96778 | 44996 ft | 533 kts | 348° |
| 2026-05-03 21:08 | 11.25891 | -79.97998 | 44996 ft | 533 kts | 348° |
| 2026-05-03 21:09 | 11.33243 | -79.99223 | 44996 ft | 533 kts | 348° |
| 2026-05-03 21:09 | 11.40529 | -80.00445 | 44996 ft | 533 kts | 348° |
| 2026-05-03 21:10 | 11.47881 | -80.01669 | 44996 ft | 533 kts | 348° |
| 2026-05-03 21:10 | 11.55180 | -80.02893 | 44996 ft | 533 kts | 348° |
| 2026-05-03 21:11 | 11.62468 | -80.04111 | 44996 ft | 533 kts | 348° |
| 2026-05-03 21:11 | 11.69818 | -80.05338 | 44996 ft | 533 kts | 348° |
| 2026-05-03 21:12 | 11.77107 | -80.06562 | 44996 ft | 533 kts | 348° |
| 2026-05-03 21:12 | 11.84458 | -80.07790 | 44996 ft | 533 kts | 348° |
| 2026-05-03 21:13 | 11.91764 | -80.09017 | 44996 ft | 533 kts | 348° |
| 2026-05-03 21:13 | 11.99053 | -80.10238 | 44996 ft | 533 kts | 348° |
| 2026-05-03 21:14 | 12.06380 | -80.11471 | 44996 ft | 533 kts | 348° |
| 2026-05-03 21:14 | 12.12489 | -80.12493 | 44996 ft | 533 kts | 348° |
| 2026-05-03 21:15 | 12.19789 | -80.13724 | 44996 ft | 533 kts | 348° |
| 2026-05-03 21:15 | 12.27143 | -80.14957 | 44996 ft | 533 kts | 348° |
| 2026-05-03 21:16 | 12.34432 | -80.16190 | 44996 ft | 533 kts | 348° |
| 2026-05-03 21:16 | 12.41785 | -80.17418 | 44996 ft | 533 kts | 348° |
| 2026-05-03 21:17 | 12.49102 | -80.18658 | 44996 ft | 533 kts | 348° |
| 2026-05-03 21:17 | 12.56393 | -80.19880 | 44996 ft | 534 kts | 348° |
| 2026-05-03 21:18 | 12.63719 | -80.21119 | 44996 ft | 533 kts | 348° |
| 2026-05-03 21:18 | 12.71032 | -80.22347 | 44996 ft | 534 kts | 348° |
| 2026-05-03 21:19 | 12.78369 | -80.23593 | 44996 ft | 534 kts | 348° |
| 2026-05-03 21:19 | 12.85693 | -80.24824 | 44996 ft | 534 kts | 348° |
| 2026-05-03 21:20 | 12.92991 | -80.26058 | 44996 ft | 534 kts | 348° |
| 2026-05-03 21:20 | 13.00316 | -80.27296 | 44996 ft | 534 kts | 348° |
| 2026-05-03 21:21 | 13.07662 | -80.28538 | 44996 ft | 534 kts | 348° |
| 2026-05-03 21:21 | 13.14996 | -80.29782 | 44996 ft | 534 kts | 348° |
| 2026-05-03 21:22 | 13.22288 | -80.31014 | 44996 ft | 534 kts | 348° |
| 2026-05-03 21:22 | 13.29623 | -80.32262 | 44996 ft | 534 kts | 348° |
| 2026-05-03 21:23 | 13.36963 | -80.33505 | 44996 ft | 534 kts | 348° |
| 2026-05-03 21:23 | 13.44300 | -80.34747 | 44996 ft | 534 kts | 348° |
| 2026-05-03 21:24 | 13.51587 | -80.35986 | 44996 ft | 534 kts | 348° |
| 2026-05-03 21:24 | 13.58923 | -80.37231 | 44996 ft | 534 kts | 348° |
| 2026-05-03 21:25 | 13.66260 | -80.38478 | 44996 ft | 534 kts | 348° |
| 2026-05-03 21:25 | 13.73596 | -80.39728 | 44996 ft | 534 kts | 348° |
| 2026-05-03 21:26 | 13.80886 | -80.40966 | 44996 ft | 534 kts | 348° |
| 2026-05-03 21:26 | 13.88227 | -80.42218 | 44996 ft | 534 kts | 348° |
| 2026-05-03 21:27 | 13.95563 | -80.43468 | 44996 ft | 534 kts | 348° |
| 2026-05-03 21:27 | 14.02895 | -80.44723 | 44996 ft | 534 kts | 348° |
| 2026-05-03 21:28 | 14.10234 | -80.45973 | 44996 ft | 534 kts | 348° |
| 2026-05-03 21:28 | 14.17571 | -80.47225 | 44996 ft | 534 kts | 348° |
| 2026-05-03 21:29 | 14.24855 | -80.48470 | 44996 ft | 534 kts | 348° |
| 2026-05-03 21:29 | 14.32193 | -80.49724 | 44996 ft | 534 kts | 348° |
| 2026-05-03 21:30 | 14.39542 | -80.50981 | 44996 ft | 534 kts | 348° |
| 2026-05-03 21:30 | 14.46878 | -80.52239 | 44996 ft | 534 kts | 348° |
| 2026-05-03 21:31 | 14.54178 | -80.53487 | 44996 ft | 534 kts | 348° |
| 2026-05-03 21:31 | 14.61529 | -80.54752 | 44996 ft | 534 kts | 348° |
| 2026-05-03 21:32 | 14.68830 | -80.56003 | 44996 ft | 534 kts | 348° |
| 2026-05-03 21:32 | 14.76169 | -80.57262 | 44996 ft | 534 kts | 348° |
| 2026-05-03 21:33 | 14.83510 | -80.58523 | 44996 ft | 534 kts | 348° |
| 2026-05-03 21:33 | 14.90854 | -80.59786 | 44996 ft | 534 kts | 348° |
| 2026-05-03 21:34 | 14.98140 | -80.61058 | 44996 ft | 534 kts | 348° |
| 2026-05-03 21:34 | 15.05481 | -80.62347 | 44996 ft | 534 kts | 348° |
| 2026-05-03 21:35 | 15.12823 | -80.63617 | 44996 ft | 534 kts | 348° |
| 2026-05-03 21:35 | 15.20120 | -80.64874 | 44996 ft | 534 kts | 348° |
| 2026-05-03 21:36 | 15.27479 | -80.66140 | 44996 ft | 534 kts | 348° |
| 2026-05-03 21:36 | 15.34813 | -80.67402 | 44996 ft | 534 kts | 348° |
| 2026-05-03 21:37 | 15.42159 | -80.68667 | 44996 ft | 534 kts | 348° |
| 2026-05-03 21:37 | 15.49459 | -80.69925 | 44996 ft | 534 kts | 348° |
| 2026-05-03 21:38 | 15.56780 | -80.71204 | 44996 ft | 534 kts | 348° |
| 2026-05-03 21:38 | 15.64121 | -80.72479 | 44996 ft | 534 kts | 348° |
| 2026-05-03 21:39 | 15.71425 | -80.73744 | 44996 ft | 534 kts | 348° |
| 2026-05-03 21:39 | 15.78768 | -80.75019 | 44996 ft | 534 kts | 348° |
| 2026-05-03 21:40 | 15.86096 | -80.76301 | 44996 ft | 533 kts | 348° |
| 2026-05-03 21:40 | 15.93369 | -80.77566 | 44996 ft | 532 kts | 348° |
| 2026-05-03 21:41 | 16.00678 | -80.78863 | 44996 ft | 531 kts | 348° |
| 2026-05-03 21:41 | 16.07935 | -80.80139 | 44996 ft | 530 kts | 348° |
| 2026-05-03 21:42 | 16.15235 | -80.81412 | 44996 ft | 530 kts | 348° |
| 2026-05-03 21:42 | 16.22486 | -80.82673 | 44996 ft | 530 kts | 348° |
| 2026-05-03 21:43 | 16.29768 | -80.83939 | 44996 ft | 530 kts | 348° |
| 2026-05-03 21:43 | 16.37014 | -80.85200 | 44996 ft | 530 kts | 348° |
| 2026-05-03 21:44 | 16.44293 | -80.86467 | 44996 ft | 529 kts | 348° |
| 2026-05-03 21:44 | 16.51521 | -80.87736 | 44996 ft | 529 kts | 348° |
| 2026-05-03 21:45 | 16.58808 | -80.89016 | 44996 ft | 529 kts | 348° |
| 2026-05-03 21:45 | 16.66045 | -80.90283 | 44996 ft | 529 kts | 348° |
| 2026-05-03 21:46 | 16.73323 | -80.91561 | 44996 ft | 529 kts | 348° |
| 2026-05-03 21:46 | 16.80582 | -80.92838 | 44996 ft | 529 kts | 348° |
| 2026-05-03 21:47 | 16.87857 | -80.94117 | 44996 ft | 529 kts | 348° |
| 2026-05-03 21:47 | 16.95093 | -80.95397 | 44996 ft | 529 kts | 348° |
| 2026-05-03 21:48 | 17.02344 | -80.96673 | 44996 ft | 529 kts | 348° |
| 2026-05-03 21:48 | 17.09603 | -80.97949 | 44996 ft | 529 kts | 348° |
| 2026-05-03 21:49 | 17.16864 | -80.99233 | 44996 ft | 529 kts | 348° |
| 2026-05-03 21:49 | 17.24116 | -81.00512 | 44996 ft | 529 kts | 348° |
| 2026-05-03 21:50 | 17.31379 | -81.01799 | 44996 ft | 529 kts | 348° |
| 2026-05-03 21:50 | 17.38625 | -81.03080 | 44996 ft | 529 kts | 348° |
| 2026-05-03 21:51 | 17.45859 | -81.04360 | 44996 ft | 529 kts | 348° |
| 2026-05-03 21:51 | 17.53108 | -81.05647 | 44996 ft | 529 kts | 348° |
| 2026-05-03 21:52 | 17.60390 | -81.06937 | 44996 ft | 529 kts | 348° |
| 2026-05-03 21:52 | 17.67644 | -81.08225 | 44996 ft | 529 kts | 348° |
| 2026-05-03 21:53 | 17.74879 | -81.09513 | 44996 ft | 529 kts | 348° |
| 2026-05-03 21:53 | 17.82169 | -81.10808 | 44996 ft | 529 kts | 348° |
| 2026-05-03 21:54 | 17.89385 | -81.12089 | 44996 ft | 529 kts | 348° |
| 2026-05-03 21:54 | 17.96656 | -81.13387 | 44996 ft | 529 kts | 348° |
| 2026-05-03 21:55 | 18.03932 | -81.14683 | 44996 ft | 529 kts | 348° |
| 2026-05-03 21:55 | 18.11152 | -81.15969 | 44996 ft | 529 kts | 348° |
| 2026-05-03 21:56 | 18.18403 | -81.17265 | 44996 ft | 529 kts | 348° |
| 2026-05-03 21:56 | 18.25685 | -81.18566 | 44996 ft | 529 kts | 348° |
| 2026-05-03 21:57 | 18.32932 | -81.19862 | 44996 ft | 529 kts | 348° |
| 2026-05-03 21:57 | 18.40184 | -81.21163 | 44996 ft | 529 kts | 348° |
| 2026-05-03 21:58 | 18.47422 | -81.22460 | 44996 ft | 529 kts | 348° |
| 2026-05-03 21:58 | 18.54710 | -81.23765 | 44996 ft | 529 kts | 348° |
| 2026-05-03 21:59 | 18.61952 | -81.25067 | 44996 ft | 529 kts | 348° |
| 2026-05-03 21:59 | 18.69233 | -81.26375 | 44996 ft | 529 kts | 348° |
| 2026-05-03 22:00 | 18.76479 | -81.27677 | 44996 ft | 529 kts | 348° |
| 2026-05-03 22:00 | 18.83712 | -81.28977 | 44996 ft | 529 kts | 348° |
| 2026-05-03 22:01 | 18.90974 | -81.30284 | 44996 ft | 529 kts | 348° |
| 2026-05-03 22:01 | 18.98242 | -81.31597 | 44996 ft | 529 kts | 348° |
| 2026-05-03 22:02 | 19.04375 | -81.32703 | 44996 ft | 529 kts | 348° |
| 2026-05-03 22:02 | 19.11641 | -81.34015 | 44996 ft | 529 kts | 348° |
| 2026-05-03 22:03 | 19.18914 | -81.35329 | 44996 ft | 529 kts | 348° |
| 2026-05-03 22:03 | 19.26136 | -81.36645 | 44996 ft | 529 kts | 347° |
| 2026-05-03 22:04 | 19.33438 | -81.37735 | 45001 ft | 531 kts | 352° |
| 2026-05-03 22:04 | 19.40819 | -81.38308 | 45001 ft | 532 kts | 354° |
| 2026-05-03 22:05 | 19.48226 | -81.38653 | 44997 ft | 532 kts | 355° |
| 2026-05-03 22:05 | 19.55622 | -81.39013 | 44996 ft | 532 kts | 354° |
| 2026-05-03 22:06 | 19.62988 | -81.39466 | 44996 ft | 532 kts | 354° |
| 2026-05-03 22:06 | 19.70388 | -81.40000 | 44996 ft | 532 kts | 353° |
| 2026-05-03 22:07 | 19.77735 | -81.40520 | 44996 ft | 532 kts | 353° |
| 2026-05-03 22:07 | 19.85136 | -81.41037 | 44996 ft | 532 kts | 353° |
| 2026-05-03 22:08 | 19.92479 | -81.41550 | 44996 ft | 532 kts | 353° |
| 2026-05-03 22:08 | 19.99872 | -81.42067 | 44996 ft | 532 kts | 353° |
| 2026-05-03 22:09 | 20.06018 | -81.42498 | 44996 ft | 532 kts | 353° |
| 2026-05-03 22:10 | 20.18306 | -81.43362 | 44996 ft | 532 kts | 353° |
| 2026-05-03 22:10 | 20.24462 | -81.43797 | 44996 ft | 532 kts | 353° |
| 2026-05-03 22:11 | 20.31859 | -81.44321 | 44996 ft | 532 kts | 353° |
| 2026-05-03 22:11 | 20.39240 | -81.44845 | 44996 ft | 532 kts | 353° |
| 2026-05-03 22:12 | 20.46604 | -81.45344 | 44996 ft | 532 kts | 354° |
| 2026-05-03 22:12 | 20.53964 | -81.45859 | 44996 ft | 532 kts | 353° |
| 2026-05-03 22:13 | 20.61348 | -81.46369 | 44996 ft | 532 kts | 354° |
| 2026-05-03 22:13 | 20.68736 | -81.46886 | 44996 ft | 532 kts | 353° |
| 2026-05-03 22:14 | 20.76097 | -81.47394 | 44996 ft | 532 kts | 354° |
| 2026-05-03 22:14 | 20.83496 | -81.47915 | 44996 ft | 532 kts | 353° |
| 2026-05-03 22:15 | 20.90897 | -81.48420 | 44996 ft | 532 kts | 354° |
| 2026-05-03 22:15 | 20.98249 | -81.48940 | 44996 ft | 532 kts | 353° |
| 2026-05-03 22:16 | 21.05640 | -81.49449 | 44996 ft | 532 kts | 354° |
| 2026-05-03 22:16 | 21.13035 | -81.49973 | 44996 ft | 532 kts | 353° |
| 2026-05-03 22:17 | 21.20394 | -81.50478 | 44996 ft | 532 kts | 354° |
| 2026-05-03 22:17 | 21.27774 | -81.51000 | 44996 ft | 532 kts | 353° |
| 2026-05-03 22:18 | 21.35166 | -81.51517 | 44996 ft | 532 kts | 354° |
| 2026-05-03 22:18 | 21.42508 | -81.52038 | 44996 ft | 532 kts | 354° |
| 2026-05-03 22:19 | 21.49917 | -81.52550 | 44996 ft | 532 kts | 353° |
| 2026-05-03 22:19 | 21.57312 | -81.53073 | 44996 ft | 532 kts | 354° |
| 2026-05-03 22:20 | 21.64677 | -81.53148 | 44996 ft | 534 kts | 0° |
| 2026-05-03 22:20 | 21.72121 | -81.52326 | 44635 ft | 542 kts | 5° |
| 2026-05-03 22:20 | 21.75862 | -81.51725 | 44254 ft | 543 kts | 6° |
| 2026-05-03 22:21 | 21.79559 | -81.51100 | 43868 ft | 540 kts | 6° |
| 2026-05-03 22:21 | 21.83280 | -81.50491 | 43476 ft | 536 kts | 6° |
| 2026-05-03 22:21 | 21.86962 | -81.49932 | 43085 ft | 531 kts | 5° |
| 2026-05-03 22:21 | 21.90617 | -81.49429 | 42694 ft | 526 kts | 4° |
| 2026-05-03 22:22 | 21.94203 | -81.48973 | 42307 ft | 522 kts | 4° |
| 2026-05-03 22:22 | 21.97801 | -81.48536 | 41915 ft | 517 kts | 4° |
| 2026-05-03 22:22 | 22.01371 | -81.48114 | 41524 ft | 513 kts | 4° |
| 2026-05-03 22:22 | 22.04915 | -81.47702 | 41131 ft | 509 kts | 3° |
| 2026-05-03 22:23 | 22.08436 | -81.47296 | 40738 ft | 504 kts | 3° |
| 2026-05-03 22:23 | 22.11886 | -81.46883 | 40350 ft | 501 kts | 4° |
| 2026-05-03 22:23 | 22.15343 | -81.46448 | 39957 ft | 497 kts | 4° |
| 2026-05-03 22:23 | 22.18770 | -81.46004 | 39565 ft | 493 kts | 4° |
| 2026-05-03 22:24 | 22.22139 | -81.45571 | 39176 ft | 489 kts | 4° |
| 2026-05-03 22:24 | 22.25518 | -81.45157 | 38783 ft | 485 kts | 4° |
| 2026-05-03 22:24 | 22.28820 | -81.44755 | 38396 ft | 481 kts | 4° |
| 2026-05-03 22:24 | 22.32141 | -81.44332 | 38003 ft | 478 kts | 4° |
| 2026-05-03 22:25 | 22.35425 | -81.43915 | 37612 ft | 474 kts | 4° |
| 2026-05-03 22:25 | 22.38688 | -81.43516 | 37220 ft | 470 kts | 3° |
| 2026-05-03 22:25 | 22.41930 | -81.43113 | 36827 ft | 466 kts | 4° |
| 2026-05-03 22:25 | 22.45135 | -81.42701 | 36435 ft | 462 kts | 4° |
| 2026-05-03 22:26 | 22.48319 | -81.42305 | 36043 ft | 458 kts | 3° |
| 2026-05-03 22:26 | 22.51472 | -81.41921 | 35650 ft | 454 kts | 3° |
| 2026-05-03 22:26 | 22.54597 | -81.41524 | 35257 ft | 450 kts | 4° |
| 2026-05-03 22:26 | 22.57697 | -81.41136 | 34863 ft | 446 kts | 3° |
| 2026-05-03 22:27 | 22.60739 | -81.40757 | 34473 ft | 442 kts | 4° |
| 2026-05-03 22:27 | 22.63796 | -81.40363 | 34078 ft | 439 kts | 4° |
| 2026-05-03 22:27 | 22.66793 | -81.39989 | 33689 ft | 436 kts | 3° |
| 2026-05-03 22:27 | 22.69803 | -81.39621 | 33294 ft | 433 kts | 3° |
| 2026-05-03 22:28 | 22.72793 | -81.39258 | 32900 ft | 430 kts | 3° |
| 2026-05-03 22:28 | 22.75754 | -81.38899 | 32507 ft | 427 kts | 3° |
| 2026-05-03 22:28 | 22.78696 | -81.38544 | 32114 ft | 424 kts | 3° |
| 2026-05-03 22:28 | 22.81624 | -81.38189 | 31721 ft | 422 kts | 3° |
| 2026-05-03 22:29 | 22.84536 | -81.37836 | 31327 ft | 419 kts | 3° |
| 2026-05-03 22:29 | 22.87395 | -81.37476 | 30938 ft | 417 kts | 3° |
| 2026-05-03 22:29 | 22.90282 | -81.37113 | 30543 ft | 414 kts | 3° |
| 2026-05-03 22:29 | 22.93141 | -81.36759 | 30149 ft | 411 kts | 3° |
| 2026-05-03 22:30 | 22.95973 | -81.36411 | 29756 ft | 409 kts | 3° |
| 2026-05-03 22:30 | 22.98755 | -81.36069 | 29368 ft | 406 kts | 3° |
| 2026-05-03 22:30 | 23.01560 | -81.35724 | 28974 ft | 403 kts | 3° |
| 2026-05-03 22:30 | 23.04346 | -81.35381 | 28580 ft | 401 kts | 3° |
| 2026-05-03 22:31 | 23.07111 | -81.35039 | 28187 ft | 398 kts | 3° |
| 2026-05-03 22:31 | 23.09854 | -81.34700 | 27794 ft | 396 kts | 3° |
| 2026-05-03 22:31 | 23.12578 | -81.34351 | 27401 ft | 393 kts | 3° |
| 2026-05-03 22:31 | 23.15294 | -81.33995 | 27008 ft | 391 kts | 3° |
| 2026-05-03 22:32 | 23.17993 | -81.33651 | 26614 ft | 389 kts | 3° |
| 2026-05-03 22:32 | 23.20678 | -81.33312 | 26221 ft | 387 kts | 3° |
| 2026-05-03 22:32 | 23.23319 | -81.32980 | 25832 ft | 385 kts | 3° |
| 2026-05-03 22:32 | 23.25984 | -81.32645 | 25437 ft | 383 kts | 3° |
| 2026-05-03 22:33 | 23.28612 | -81.32316 | 25041 ft | 382 kts | 3° |
| 2026-05-03 22:33 | 23.31261 | -81.31983 | 24639 ft | 381 kts | 3° |
| 2026-05-03 22:33 | 23.33891 | -81.31653 | 24238 ft | 379 kts | 3° |
| 2026-05-03 22:33 | 23.36517 | -81.31323 | 23836 ft | 378 kts | 3° |
| 2026-05-03 22:34 | 23.39099 | -81.30998 | 23446 ft | 377 kts | 3° |
| 2026-05-03 22:34 | 23.41708 | -81.30669 | 23083 ft | 374 kts | 3° |
| 2026-05-03 22:34 | 23.44292 | -81.30342 | 22730 ft | 372 kts | 3° |
| 2026-05-03 22:34 | 23.46864 | -81.30016 | 22378 ft | 370 kts | 3° |
| 2026-05-03 22:35 | 23.49399 | -81.29694 | 22029 ft | 368 kts | 3° |
| 2026-05-03 22:35 | 23.51929 | -81.29372 | 21679 ft | 366 kts | 3° |
| 2026-05-03 22:35 | 23.54464 | -81.29049 | 21330 ft | 364 kts | 3° |
| 2026-05-03 22:35 | 23.56976 | -81.28728 | 21014 ft | 362 kts | 3° |
| 2026-05-03 22:36 | 23.59467 | -81.28408 | 20712 ft | 359 kts | 3° |
| 2026-05-03 22:36 | 23.61910 | -81.28094 | 20414 ft | 356 kts | 3° |
| 2026-05-03 22:36 | 23.64362 | -81.27792 | 20114 ft | 354 kts | 2° |
| 2026-05-03 22:36 | 23.66812 | -81.27491 | 19811 ft | 352 kts | 2° |
| 2026-05-03 22:37 | 23.69234 | -81.27184 | 19511 ft | 350 kts | 2° |
| 2026-05-03 22:37 | 23.71644 | -81.26877 | 19210 ft | 348 kts | 2° |
| 2026-05-03 22:37 | 23.74048 | -81.26585 | 18909 ft | 346 kts | 2° |
| 2026-05-03 22:37 | 23.76437 | -81.26284 | 18608 ft | 344 kts | 2° |
| 2026-05-03 22:38 | 23.78812 | -81.25979 | 18307 ft | 343 kts | 2° |
| 2026-05-03 22:38 | 23.81172 | -81.25690 | 18125 ft | 338 kts | 2° |
| 2026-05-03 22:38 | 23.83469 | -81.25411 | 18022 ft | 333 kts | 2° |
| 2026-05-03 22:38 | 23.85759 | -81.25121 | 17994 ft | 329 kts | 2° |
| 2026-05-03 22:39 | 23.88029 | -81.24845 | 17997 ft | 327 kts | 2° |
| 2026-05-03 22:39 | 23.90301 | -81.24558 | 17999 ft | 328 kts | 2° |
| 2026-05-03 22:39 | 23.92545 | -81.24313 | 17998 ft | 327 kts | 356° |
| 2026-05-03 22:39 | 23.94719 | -81.24852 | 17998 ft | 316 kts | 329° |
| 2026-05-03 22:40 | 23.96521 | -81.26244 | 17724 ft | 319 kts | 315° |
| 2026-05-03 22:40 | 23.98076 | -81.27975 | 17356 ft | 319 kts | 309° |
| 2026-05-03 22:40 | 23.99496 | -81.29806 | 16981 ft | 319 kts | 307° |
| 2026-05-03 22:40 | 24.00883 | -81.31710 | 16505 ft | 312 kts | 306° |
| 2026-05-03 22:41 | 24.02162 | -81.33506 | 15924 ft | 288 kts | 305° |
| 2026-05-03 22:41 | 24.03362 | -81.35203 | 15345 ft | 277 kts | 305° |
| 2026-05-03 22:41 | 24.04529 | -81.36855 | 14768 ft | 272 kts | 305° |
| 2026-05-03 22:41 | 24.05524 | -81.38266 | 14270 ft | 269 kts | 305° |
| 2026-05-03 22:42 | 24.06666 | -81.39885 | 13692 ft | 267 kts | 305° |
| 2026-05-03 22:42 | 24.07795 | -81.41488 | 13116 ft | 264 kts | 305° |
| 2026-05-03 22:42 | 24.08917 | -81.43079 | 12538 ft | 262 kts | 305° |
| 2026-05-03 22:42 | 24.10028 | -81.44654 | 11961 ft | 260 kts | 305° |
| 2026-05-03 22:43 | 24.11154 | -81.46257 | 11588 ft | 274 kts | 305° |
| 2026-05-03 22:43 | 24.12322 | -81.47925 | 11338 ft | 277 kts | 305° |
| 2026-05-03 22:43 | 24.13498 | -81.49610 | 11088 ft | 279 kts | 305° |
| 2026-05-03 22:43 | 24.14684 | -81.51307 | 10839 ft | 281 kts | 305° |
| 2026-05-03 22:44 | 24.15861 | -81.52994 | 10592 ft | 283 kts | 305° |
| 2026-05-03 22:44 | 24.17062 | -81.54716 | 10342 ft | 285 kts | 305° |
| 2026-05-03 22:44 | 24.18269 | -81.56446 | 10155 ft | 284 kts | 305° |
| 2026-05-03 22:44 | 24.19463 | -81.58156 | 10044 ft | 280 kts | 305° |
| 2026-05-03 22:45 | 24.20627 | -81.59821 | 10009 ft | 275 kts | 305° |
| 2026-05-03 22:45 | 24.21779 | -81.61465 | 10000 ft | 269 kts | 305° |
| 2026-05-03 22:45 | 24.22912 | -81.63077 | 9998 ft | 263 kts | 305° |
| 2026-05-03 22:45 | 24.24023 | -81.64655 | 9998 ft | 258 kts | 305° |
| 2026-05-03 22:46 | 24.25113 | -81.66199 | 9998 ft | 253 kts | 305° |
| 2026-05-03 22:46 | 24.26173 | -81.67699 | 9998 ft | 249 kts | 305° |
| 2026-05-03 22:46 | 24.27230 | -81.69191 | 9998 ft | 245 kts | 305° |
| 2026-05-03 22:46 | 24.28274 | -81.70663 | 9998 ft | 242 kts | 305° |
| 2026-05-03 22:47 | 24.29289 | -81.72091 | 9998 ft | 238 kts | 305° |
| 2026-05-03 22:47 | 24.30308 | -81.73522 | 9998 ft | 235 kts | 305° |
| 2026-05-03 22:47 | 24.31312 | -81.74930 | 9998 ft | 233 kts | 305° |
| 2026-05-03 22:47 | 24.32308 | -81.76326 | 9998 ft | 230 kts | 305° |
| 2026-05-03 22:48 | 24.33289 | -81.77699 | 9771 ft | 238 kts | 305° |
| 2026-05-03 22:48 | 24.34339 | -81.79168 | 9395 ft | 250 kts | 304° |
| 2026-05-03 22:48 | 24.35197 | -81.80862 | 9019 ft | 259 kts | 291° |
| 2026-05-03 22:48 | 24.35842 | -81.82747 | 8641 ft | 268 kts | 287° |
| 2026-05-03 22:49 | 24.36418 | -81.84722 | 8264 ft | 276 kts | 286° |
| 2026-05-03 22:49 | 24.36970 | -81.86738 | 7885 ft | 276 kts | 285° |
| 2026-05-03 22:49 | 24.37483 | -81.88640 | 7382 ft | 248 kts | 285° |
| 2026-05-03 22:49 | 24.37955 | -81.90393 | 6826 ft | 231 kts | 285° |
| 2026-05-03 22:50 | 24.38396 | -81.92028 | 6278 ft | 221 kts | 285° |
| 2026-05-03 22:50 | 24.38820 | -81.93622 | 5723 ft | 214 kts | 285° |
| 2026-05-03 22:50 | 24.39213 | -81.95187 | 5171 ft | 211 kts | 285° |
| 2026-05-03 22:50 | 24.39582 | -81.96743 | 4618 ft | 210 kts | 285° |
| 2026-05-03 22:51 | 24.39941 | -81.98308 | 4065 ft | 211 kts | 285° |
| 2026-05-03 22:51 | 24.40298 | -81.99859 | 3519 ft | 212 kts | 285° |
| 2026-05-03 22:51 | 24.40672 | -82.01433 | 2985 ft | 215 kts | 285° |
| 2026-05-03 22:51 | 24.41073 | -82.03066 | 2633 ft | 225 kts | 285° |
| 2026-05-03 22:52 | 24.41491 | -82.04756 | 2261 ft | 233 kts | 285° |
| 2026-05-03 22:52 | 24.41919 | -82.06485 | 1891 ft | 239 kts | 285° |
| 2026-05-03 22:52 | 24.42361 | -82.08264 | 1616 ft | 240 kts | 285° |
| 2026-05-03 22:52 | 24.42794 | -82.10009 | 1524 ft | 233 kts | 285° |
| 2026-05-03 22:53 | 24.43209 | -82.11678 | 1501 ft | 224 kts | 285° |
| 2026-05-03 22:53 | 24.43613 | -82.13299 | 1496 ft | 216 kts | 285° |
| 2026-05-03 22:53 | 24.44002 | -82.14865 | 1495 ft | 209 kts | 285° |
| 2026-05-03 22:53 | 24.44472 | -82.16352 | 1484 ft | 204 kts | 301° |
| 2026-05-03 22:54 | 24.45563 | -82.17253 | 1491 ft | 197 kts | 345° |
| 2026-05-03 22:54 | 24.46865 | -82.17066 | 1494 ft | 190 kts | 30° |
| 2026-05-03 22:54 | 24.47717 | -82.16034 | 1511 ft | 184 kts | 58° |
| 2026-05-03 22:54 | 24.48310 | -82.14808 | 1502 ft | 181 kts | 64° |
| 2026-05-03 22:55 | 24.48842 | -82.13572 | 1497 ft | 177 kts | 65° |
| 2026-05-03 22:55 | 24.49356 | -82.12352 | 1496 ft | 174 kts | 65° |
| 2026-05-03 22:55 | 24.49859 | -82.11155 | 1496 ft | 171 kts | 65° |
| 2026-05-03 22:55 | 24.50345 | -82.09997 | 1496 ft | 168 kts | 65° |
| 2026-05-03 22:56 | 24.50834 | -82.08833 | 1498 ft | 167 kts | 65° |
| 2026-05-03 22:56 | 24.51324 | -82.07668 | 1501 ft | 168 kts | 65° |
| 2026-05-03 22:56 | 24.51811 | -82.06510 | 1502 ft | 170 kts | 65° |
| 2026-05-03 22:56 | 24.52310 | -82.05322 | 1502 ft | 171 kts | 65° |
| 2026-05-03 22:57 | 24.52813 | -82.04128 | 1501 ft | 172 kts | 65° |
| 2026-05-03 22:57 | 24.53318 | -82.02926 | 1501 ft | 173 kts | 65° |
| 2026-05-03 22:57 | 24.53819 | -82.01737 | 1500 ft | 173 kts | 65° |
| 2026-05-03 22:57 | 24.54325 | -82.00535 | 1500 ft | 173 kts | 65° |
| 2026-05-03 22:58 | 24.54831 | -81.99333 | 1500 ft | 173 kts | 65° |
| 2026-05-03 22:58 | 24.55325 | -81.98145 | 1499 ft | 173 kts | 68° |
| 2026-05-03 22:58 | 24.55549 | -81.96852 | 1503 ft | 172 kts | 86° |
| 2026-05-03 22:58 | 24.55578 | -81.95977 | 1503 ft | 173 kts | 89° |
| 2026-05-03 22:59 | 24.55586 | -81.94656 | 1501 ft | 173 kts | 90° |
| 2026-05-03 22:59 | 24.55585 | -81.93331 | 1500 ft | 173 kts | 90° |
| 2026-05-03 22:59 | 24.55582 | -81.91575 | 1500 ft | 173 kts | 90° |
| 2026-05-03 22:59 | 24.55579 | -81.90680 | 1500 ft | 173 kts | 90° |
| 2026-05-03 23:00 | 24.55563 | -81.89375 | 1500 ft | 173 kts | 91° |
| 2026-05-03 23:00 | 24.55552 | -81.88055 | 1498 ft | 171 kts | 90° |
| 2026-05-03 23:00 | 24.55549 | -81.86756 | 1496 ft | 168 kts | 90° |
| 2026-05-03 23:00 | 24.55547 | -81.85486 | 1497 ft | 165 kts | 90° |
| 2026-05-03 23:01 | 24.55545 | -81.84293 | 1466 ft | 153 kts | 90° |
| 2026-05-03 23:01 | 24.55544 | -81.83144 | 1234 ft | 149 kts | 90° |
| 2026-05-03 23:01 | 24.55542 | -81.82001 | 976 ft | 149 kts | 90° |
| 2026-05-03 23:01 | 24.55539 | -81.80858 | 741 ft | 149 kts | 90° |
| 2026-05-03 23:02 | 24.55542 | -81.79731 | 526 ft | 149 kts | 90° |
| 2026-05-03 23:02 | 24.55573 | -81.78596 | 316 ft | 148 kts | 88° |
| 2026-05-03 23:02 | 24.55598 | -81.77473 | 122 ft | 145 kts | 90° |
| 2026-05-03 23:02 | 24.55605 | -81.76410 | 8 ft | 133 kts | 89° |
| 2026-05-03 23:03 | 24.55615 | -81.75602 | 7 ft | 65 kts | 89° |
| 2026-05-03 23:03 | 24.55618 | -81.75352 | 7 ft | 19 kts | 89° |
| 2026-05-03 23:03 | 24.55582 | -81.75256 | 7 ft | 8 kts | 173° |
| 2026-05-03 23:03 | 24.55526 | -81.75272 | 7 ft | 11 kts | 234° |
| 2026-05-03 23:04 | 24.55492 | -81.75359 | 7 ft | 12 kts | 259° |
| 2026-05-03 23:04 | 24.55464 | -81.75380 | 7 ft | 6 kts | 180° |
| 2026-05-03 23:04 | 24.55423 | -81.75381 | 7 ft | 5 kts | 186° |
| 2026-05-03 23:04 | 24.55408 | -81.75406 | 7 ft | 4 kts | 269° |
| 2026-05-03 23:05 | 24.55407 | -81.75418 | 7 ft | 0 kts | 268° |